createdAt,value
2018-06-05T00:01:29.643Z,100518.00
2018-06-05T00:03:58.828Z,100515.00
2018-06-05T00:06:27.982Z,100517.00
2018-06-05T00:08:57.170Z,100513.00
2018-06-05T00:11:26.305Z,100513.00
2018-06-05T00:13:55.533Z,100518.00
2018-06-05T00:16:24.709Z,100517.00
2018-06-05T00:18:53.882Z,100519.00
2018-06-05T00:21:23.094Z,100514.00
2018-06-05T00:23:52.231Z,100510.00
2018-06-05T00:26:21.672Z,100518.00
2018-06-05T00:28:50.939Z,100520.00
2018-06-05T00:31:20.153Z,100512.00
2018-06-05T00:33:49.298Z,100524.00
2018-06-05T00:36:18.489Z,100518.00
2018-06-05T00:38:47.717Z,100522.00
2018-06-05T00:41:16.867Z,100524.00
2018-06-05T00:43:46.026Z,100520.00
2018-06-05T00:46:15.224Z,100524.00
2018-06-05T00:48:44.472Z,100523.00
2018-06-05T00:51:30.710Z,100522.00
2018-06-05T00:53:59.952Z,100520.00
2018-06-05T00:56:29.128Z,100513.00
2018-06-05T00:58:58.399Z,100520.00
2018-06-05T01:01:27.625Z,100527.00
2018-06-05T01:03:56.840Z,100522.00
2018-06-05T01:06:26.047Z,100517.00
2018-06-05T01:08:55.240Z,100517.00
2018-06-05T01:11:24.439Z,100515.00
2018-06-05T01:13:53.642Z,100520.00
2018-06-05T01:16:22.862Z,100518.00
2018-06-05T01:18:52.032Z,100514.00
2018-06-05T01:21:21.269Z,100508.00
2018-06-05T01:23:50.479Z,100512.00
2018-06-05T01:26:19.687Z,100504.00
2018-06-05T01:28:48.853Z,100502.00
2018-06-05T01:31:18.065Z,100506.00
2018-06-05T01:33:47.243Z,100500.00
2018-06-05T01:36:16.444Z,100516.00
2018-06-05T01:38:45.645Z,100501.00
2018-06-05T01:41:14.826Z,100504.00
2018-06-05T01:43:44.055Z,100502.00
2018-06-05T01:46:13.270Z,100508.00
2018-06-05T01:48:42.502Z,100503.00
2018-06-05T01:51:11.719Z,100509.00
2018-06-05T01:53:41.025Z,100501.00
2018-06-05T01:56:10.244Z,100501.00
2018-06-05T01:58:39.415Z,100495.00
2018-06-05T02:01:08.586Z,100488.00
2018-06-05T02:03:37.974Z,100486.00
2018-06-05T02:06:07.175Z,100489.00
2018-06-05T02:08:36.397Z,100485.00
2018-06-05T02:11:05.643Z,100473.00
2018-06-05T02:13:34.795Z,100477.00
2018-06-05T02:16:04.060Z,100470.00
2018-06-05T02:18:33.213Z,100475.00
2018-06-05T02:21:02.480Z,100476.00
2018-06-05T02:23:31.711Z,100478.00
2018-06-05T02:26:00.901Z,100481.00
2018-06-05T02:28:30.122Z,100478.00
2018-06-05T02:30:59.377Z,100481.00
2018-06-05T02:33:28.520Z,100485.00
2018-06-05T02:35:57.735Z,100476.00
2018-06-05T02:38:26.912Z,100478.00
2018-06-05T02:40:56.158Z,100485.00
2018-06-05T02:43:25.356Z,100496.00
2018-06-05T02:45:54.561Z,100489.00
2018-06-05T02:48:24.174Z,100489.00
2018-06-05T02:50:53.398Z,100482.00
2018-06-05T02:53:22.599Z,100497.00
2018-06-05T02:55:51.795Z,100504.00
2018-06-05T02:58:21.074Z,100496.00
2018-06-05T03:00:50.257Z,100502.00
2018-06-05T03:03:19.426Z,100504.00
2018-06-05T03:05:48.634Z,100502.00
2018-06-05T03:08:17.828Z,100492.00
2018-06-05T03:10:46.969Z,100503.00
2018-06-05T03:13:16.152Z,100507.00
2018-06-05T03:15:45.381Z,100510.00
2018-06-05T03:18:14.594Z,100509.00
2018-06-05T03:20:43.905Z,100512.00
2018-06-05T03:23:13.092Z,100509.00
2018-06-05T03:25:42.334Z,100508.00
2018-06-05T03:28:11.546Z,100503.00
2018-06-05T03:30:40.769Z,100510.00
2018-06-05T03:33:10.000Z,100509.00
2018-06-05T03:35:39.298Z,100514.00
2018-06-05T03:38:08.510Z,100519.00
2018-06-05T03:40:37.740Z,100511.00
2018-06-05T03:43:07.049Z,100508.00
2018-06-05T03:45:36.303Z,100504.00
2018-06-05T03:48:05.434Z,100507.00
2018-06-05T03:50:34.612Z,100512.00
2018-06-05T03:53:03.815Z,100513.00
2018-06-05T03:55:32.982Z,100510.00
2018-06-05T03:58:02.235Z,100512.00
2018-06-05T04:00:31.483Z,100513.00
2018-06-05T04:03:00.754Z,100511.00
2018-06-05T04:05:29.995Z,100515.00
2018-06-05T04:07:59.271Z,100518.00
2018-06-05T04:10:28.482Z,100519.00
2018-06-05T04:12:57.750Z,100516.00
2018-06-05T04:15:26.967Z,100513.00
2018-06-05T04:17:56.109Z,100525.00
2018-06-05T04:20:25.311Z,100518.00
2018-06-05T04:22:54.556Z,100521.00
2018-06-05T04:25:24.430Z,100533.00
2018-06-05T04:27:53.769Z,100533.00
2018-06-05T04:30:22.998Z,100527.00
2018-06-05T04:32:52.235Z,100536.00
2018-06-05T04:35:21.401Z,100527.00
2018-06-05T04:37:50.644Z,100545.00
2018-06-05T04:40:19.793Z,100542.00
2018-06-05T04:42:48.975Z,100548.00
2018-06-05T04:45:18.302Z,100548.00
2018-06-05T04:47:47.565Z,100539.00
2018-06-05T04:50:16.661Z,100543.00
2018-06-05T04:52:45.852Z,100540.00
2018-06-05T04:55:15.081Z,100546.00
2018-06-05T04:57:44.308Z,100551.00
2018-06-05T05:00:13.423Z,100546.00
2018-06-05T05:02:42.617Z,100549.00
2018-06-05T05:05:11.882Z,100553.00
2018-06-05T05:07:41.105Z,100547.00
2018-06-05T05:10:10.333Z,100556.00
2018-06-05T05:12:39.534Z,100554.00
2018-06-05T05:15:08.766Z,100557.00
2018-06-05T05:17:37.933Z,100560.00
2018-06-05T05:20:07.489Z,100561.00
2018-06-05T05:22:36.702Z,100570.00
2018-06-05T05:25:05.968Z,100572.00
2018-06-05T05:27:35.124Z,100569.00
2018-06-05T05:30:04.426Z,100578.00
2018-06-05T05:32:33.622Z,100576.00
2018-06-05T05:35:02.795Z,100592.00
2018-06-05T05:37:32.008Z,100580.00
2018-06-05T05:40:01.196Z,100586.00
2018-06-05T05:42:30.423Z,100586.00
2018-06-05T05:44:59.648Z,100582.00
2018-06-05T05:47:28.868Z,100588.00
2018-06-05T05:49:58.029Z,100589.00
2018-06-05T05:52:27.278Z,100588.00
2018-06-05T05:54:56.482Z,100591.00
2018-06-05T05:57:25.814Z,100592.00
2018-06-05T05:59:54.980Z,100599.00
2018-06-05T06:02:24.127Z,100600.00
2018-06-05T06:04:53.270Z,100600.00
2018-06-05T06:07:22.458Z,100606.00
2018-06-05T06:09:51.901Z,100606.00
2018-06-05T06:12:21.242Z,100621.00
2018-06-05T06:14:50.531Z,100620.00
2018-06-05T06:17:19.735Z,100619.00
2018-06-05T06:19:48.923Z,100618.00
2018-06-05T06:22:18.123Z,100632.00
2018-06-05T06:24:47.354Z,100635.00
2018-06-05T06:27:17.105Z,100640.00
2018-06-05T06:29:46.297Z,100629.00
2018-06-05T06:32:15.453Z,100623.00
2018-06-05T06:34:44.693Z,100631.00
2018-06-05T06:37:13.921Z,100633.00
2018-06-05T06:39:43.140Z,100629.00
2018-06-05T06:42:12.462Z,100624.00
2018-06-05T06:44:41.629Z,100625.00
2018-06-05T06:47:10.538Z,100631.00
2018-06-05T06:49:39.765Z,100634.00
2018-06-05T06:52:08.926Z,100629.00
2018-06-05T06:54:38.141Z,100640.00
2018-06-05T06:57:07.300Z,100640.00
2018-06-05T06:59:36.524Z,100641.00
2018-06-05T07:02:05.749Z,100642.00
2018-06-05T07:04:35.033Z,100643.00
2018-06-05T07:07:04.263Z,100639.00
2018-06-05T07:09:33.419Z,100647.00
2018-06-05T07:12:02.640Z,100645.00
2018-06-05T07:14:31.813Z,100648.00
2018-06-05T07:17:01.096Z,100649.00
2018-06-05T07:19:30.314Z,100650.00
2018-06-05T07:21:59.480Z,100651.00
2018-06-05T07:24:28.688Z,100653.00
2018-06-05T07:26:57.997Z,100648.00
2018-06-05T07:29:27.187Z,100656.00
2018-06-05T07:31:56.403Z,100656.00
2018-06-05T07:34:25.549Z,100666.00
2018-06-05T07:36:54.662Z,100664.00
2018-06-05T07:39:23.832Z,100669.00
2018-06-05T07:41:53.020Z,100669.00
2018-06-05T07:44:22.320Z,100662.00
2018-06-05T07:46:51.557Z,100669.00
2018-06-05T07:49:20.681Z,100667.00
2018-06-05T07:51:49.847Z,100671.00
2018-06-05T07:54:19.121Z,100677.00
2018-06-05T07:56:48.352Z,100674.00
2018-06-05T07:59:17.671Z,100670.00
2018-06-05T08:01:46.943Z,100666.00
2018-06-05T08:04:16.191Z,100673.00
2018-06-05T08:06:45.407Z,100667.00
2018-06-05T08:09:14.597Z,100664.00
2018-06-05T08:11:43.740Z,100664.00
2018-06-05T08:14:12.945Z,100665.00
2018-06-05T08:16:42.189Z,100666.00
2018-06-05T08:19:11.312Z,100662.00
2018-06-05T08:21:40.525Z,100668.00
2018-06-05T08:24:09.727Z,100669.00
2018-06-05T08:26:51.308Z,100670.00
2018-06-05T08:29:21.312Z,100674.00
2018-06-05T08:31:50.589Z,100676.00
2018-06-05T08:34:19.878Z,100688.00
2018-06-05T08:36:49.697Z,100687.00
2018-06-05T08:39:19.100Z,100689.00
2018-06-05T08:41:48.236Z,100684.00
2018-06-05T08:44:18.379Z,100694.00
2018-06-05T08:46:47.659Z,100701.00
2018-06-05T08:49:16.961Z,100693.00
2018-06-05T08:51:46.147Z,100690.00
2018-06-05T08:54:15.353Z,100699.00
2018-06-05T08:56:44.533Z,100696.00
2018-06-05T08:59:13.747Z,100706.00
2018-06-05T09:01:42.909Z,100695.00
2018-06-05T09:04:12.157Z,100705.00
2018-06-05T09:06:41.355Z,100697.00
2018-06-05T09:09:10.650Z,100697.00
2018-06-05T09:11:39.848Z,100700.00
2018-06-05T09:14:09.020Z,100695.00
2018-06-05T09:16:38.207Z,100694.00
2018-06-05T09:19:07.363Z,100703.00
2018-06-05T09:21:36.568Z,100696.00
2018-06-05T09:24:05.721Z,100704.00
2018-06-05T09:26:34.921Z,100706.00
2018-06-05T09:29:04.129Z,100707.00
2018-06-05T09:31:33.293Z,100719.00
2018-06-05T09:34:02.473Z,100712.00
2018-06-05T09:36:31.750Z,100709.00
2018-06-05T09:39:00.962Z,100720.00
2018-06-05T09:41:30.176Z,100719.00
2018-06-05T09:43:59.457Z,100719.00
2018-06-05T09:46:28.611Z,100719.00
2018-06-05T09:48:57.823Z,100723.00
2018-06-05T09:51:27.016Z,100724.00
2018-06-05T09:53:56.262Z,100727.00
2018-06-05T09:56:25.494Z,100724.00
2018-06-05T09:58:54.761Z,100729.00
2018-06-05T10:01:24.011Z,100733.00
2018-06-05T10:03:53.241Z,100734.00
2018-06-05T10:06:22.419Z,100725.00
2018-06-05T10:08:51.632Z,100734.00
2018-06-05T10:11:20.884Z,100731.00
2018-06-05T10:13:50.091Z,100738.00
2018-06-05T10:16:19.247Z,100736.00
2018-06-05T10:18:49.823Z,100740.00
2018-06-05T10:21:19.076Z,100737.00
2018-06-05T10:23:48.227Z,100740.00
2018-06-05T10:26:17.445Z,100748.00
2018-06-05T10:28:46.643Z,100745.00
2018-06-05T10:31:15.810Z,100748.00
2018-06-05T10:33:44.938Z,100746.00
2018-06-05T10:36:14.125Z,100745.00
2018-06-05T10:38:43.303Z,100747.00
2018-06-05T10:41:12.477Z,100749.00
2018-06-05T10:43:41.701Z,100744.00
2018-06-05T10:46:10.878Z,100749.00
2018-06-05T10:48:40.077Z,100749.00
2018-06-05T10:51:09.348Z,100744.00
2018-06-05T10:53:38.583Z,100748.00
2018-06-05T10:56:07.744Z,100757.00
2018-06-05T10:58:36.950Z,100751.00
2018-06-05T11:01:06.150Z,100755.00
2018-06-05T11:03:35.389Z,100755.00
2018-06-05T11:06:04.722Z,100756.00
2018-06-05T11:08:33.893Z,100758.00
2018-06-05T11:11:03.184Z,100761.00
2018-06-05T11:13:32.372Z,100757.00
2018-06-05T11:16:01.590Z,100763.00
2018-06-05T11:18:30.801Z,100753.00
2018-06-05T11:20:59.995Z,100760.00
2018-06-05T11:23:29.214Z,100763.00
2018-06-05T11:25:58.343Z,100762.00
2018-06-05T11:28:27.477Z,100759.00
2018-06-05T11:30:56.714Z,100762.00
2018-06-05T11:33:25.905Z,100762.00
2018-06-05T11:35:55.062Z,100762.00
2018-06-05T11:38:24.240Z,100758.00
2018-06-05T11:40:53.503Z,100762.00
2018-06-05T11:43:22.684Z,100758.00
2018-06-05T11:45:51.868Z,100755.00
2018-06-05T11:48:21.054Z,100760.00
2018-06-05T11:50:50.233Z,100753.00
2018-06-05T11:53:19.418Z,100751.00
2018-06-05T11:55:48.651Z,100751.00
2018-06-05T11:58:17.870Z,100748.00
2018-06-05T12:00:47.143Z,100751.00
2018-06-05T12:03:16.284Z,100754.00
2018-06-05T12:05:45.553Z,100754.00
2018-06-05T12:08:14.709Z,100751.00
2018-06-05T12:10:43.915Z,100755.00
2018-06-05T12:13:13.111Z,100750.00
2018-06-05T12:15:42.407Z,100754.00
2018-06-05T12:18:11.625Z,100756.00
2018-06-05T12:20:40.824Z,100751.00
2018-06-05T12:23:10.013Z,100753.00
2018-06-05T12:25:39.244Z,100744.00
2018-06-05T12:28:08.418Z,100743.00
2018-06-05T12:30:37.576Z,100739.00
2018-06-05T12:33:09.367Z,100749.00
2018-06-05T12:35:38.518Z,100740.00
2018-06-05T12:38:07.665Z,100742.00
2018-06-05T12:40:36.801Z,100730.00
2018-06-05T12:43:06.024Z,100737.00
2018-06-05T12:45:35.230Z,100731.00
2018-06-05T12:48:04.509Z,100729.00
2018-06-05T12:50:33.650Z,100722.00
2018-06-05T12:53:02.988Z,100725.00
2018-06-05T12:55:32.194Z,100724.00
2018-06-05T12:58:03.835Z,100720.00
2018-06-05T13:00:32.964Z,100721.00
2018-06-05T13:03:02.142Z,100725.00
2018-06-05T13:05:31.328Z,100722.00
2018-06-05T13:08:00.591Z,100722.00
2018-06-05T13:10:29.828Z,100723.00
2018-06-05T13:12:59.072Z,100722.00
2018-06-05T13:15:28.360Z,100723.00
2018-06-05T13:17:57.456Z,100715.00
2018-06-05T13:20:26.891Z,100720.00
2018-06-05T13:22:56.363Z,100720.00
2018-06-05T13:25:25.421Z,100717.00
2018-06-05T13:27:54.649Z,100704.00
2018-06-05T13:30:23.969Z,100707.00
2018-06-05T13:32:53.414Z,100710.00
2018-06-05T13:35:22.745Z,100710.00
2018-06-05T13:37:52.074Z,100707.00
2018-06-05T13:40:21.260Z,100704.00
2018-06-05T13:42:50.481Z,100707.00
2018-06-05T13:45:19.724Z,100708.00
2018-06-05T13:47:49.022Z,100713.00
2018-06-05T13:50:18.189Z,100705.00
2018-06-05T13:52:47.366Z,100712.00
2018-06-05T13:55:16.581Z,100711.00
2018-06-05T13:57:45.729Z,100714.00
2018-06-05T14:00:14.909Z,100709.00
2018-06-05T14:02:44.108Z,100712.00
2018-06-05T14:05:13.332Z,100704.00
2018-06-05T14:07:42.531Z,100701.00
2018-06-05T14:10:11.669Z,100699.00
2018-06-05T14:12:40.870Z,100710.00
2018-06-05T14:15:09.986Z,100716.00
2018-06-05T14:17:39.112Z,100716.00
2018-06-05T14:20:08.316Z,100709.00
2018-06-05T14:22:37.460Z,100703.00
2018-06-05T14:25:06.616Z,100708.00
2018-06-05T14:27:35.837Z,100703.00
2018-06-05T14:30:05.358Z,100702.00
2018-06-05T14:32:34.507Z,100705.00
2018-06-05T14:35:03.653Z,100704.00
2018-06-05T14:37:32.870Z,100713.00
2018-06-05T14:40:02.050Z,100716.00
2018-06-05T14:42:31.174Z,100718.00
2018-06-05T14:45:00.434Z,100712.00
2018-06-05T14:47:29.585Z,100712.00
2018-06-05T14:49:58.723Z,100709.00
2018-06-05T14:52:27.897Z,100704.00
2018-06-05T14:54:57.102Z,100700.00
2018-06-05T14:57:26.431Z,100699.00
2018-06-05T14:59:55.619Z,100702.00
2018-06-05T15:02:24.756Z,100697.00
2018-06-05T15:04:54.076Z,100699.00
2018-06-05T15:07:23.426Z,100688.00
2018-06-05T15:09:52.588Z,100688.00
2018-06-05T15:12:21.777Z,100682.00
2018-06-05T15:14:50.986Z,100690.00
2018-06-05T15:17:20.163Z,100692.00
2018-06-05T15:19:49.296Z,100683.00
2018-06-05T15:22:18.814Z,100675.00
2018-06-05T15:24:47.977Z,100677.00
2018-06-05T15:27:17.260Z,100681.00
2018-06-05T15:29:46.403Z,100683.00
2018-06-05T15:32:15.947Z,100681.00
2018-06-05T15:34:45.126Z,100679.00
2018-06-05T15:37:14.310Z,100694.00
2018-06-05T15:39:43.499Z,100687.00
2018-06-05T15:42:12.850Z,100687.00
2018-06-05T15:44:42.016Z,100685.00
2018-06-05T15:47:11.194Z,100681.00
2018-06-05T15:49:40.451Z,100674.00
2018-06-05T15:52:09.617Z,100683.00
2018-06-05T15:54:38.813Z,100686.00
2018-06-05T15:57:08.042Z,100684.00
2018-06-05T15:59:37.242Z,100670.00
2018-06-05T16:02:06.408Z,100675.00
2018-06-05T16:04:35.653Z,100679.00
2018-06-05T16:07:05.818Z,100679.00
2018-06-05T16:09:35.487Z,100677.00
2018-06-05T16:12:04.699Z,100678.00
2018-06-05T16:14:33.835Z,100679.00
2018-06-05T16:17:02.952Z,100677.00
2018-06-05T16:19:32.112Z,100673.00
2018-06-05T16:22:01.242Z,100674.00
2018-06-05T16:24:30.441Z,100678.00
2018-06-05T16:27:01.159Z,100676.00
2018-06-05T16:29:30.271Z,100684.00
2018-06-05T16:31:59.534Z,100679.00
2018-06-05T16:34:29.266Z,100675.00
2018-06-05T16:36:58.511Z,100671.00
2018-06-05T16:39:27.774Z,100674.00
2018-06-05T16:41:56.961Z,100668.00
2018-06-05T16:44:26.072Z,100672.00
2018-06-05T16:46:55.281Z,100672.00
2018-06-05T16:49:24.364Z,100679.00
2018-06-05T16:51:53.505Z,100673.00
2018-06-05T16:54:22.706Z,100677.00
2018-06-05T16:56:51.878Z,100683.00
2018-06-05T16:59:21.157Z,100680.00
2018-06-05T17:01:50.421Z,100687.00
2018-06-05T17:04:19.667Z,100677.00
2018-06-05T17:06:55.378Z,100668.00
2018-06-05T17:09:24.534Z,100671.00
2018-06-05T17:11:53.965Z,100671.00
2018-06-05T17:14:23.145Z,100678.00
2018-06-05T17:16:52.706Z,100669.00
2018-06-05T17:19:21.828Z,100671.00
2018-06-05T17:21:51.029Z,100672.00
2018-06-05T17:24:20.210Z,100670.00
2018-06-05T17:26:49.472Z,100675.00
2018-06-05T17:29:18.715Z,100667.00
2018-06-05T17:31:47.893Z,100668.00
2018-06-05T17:34:17.084Z,100671.00
2018-06-05T17:36:46.268Z,100673.00
2018-06-05T17:39:15.493Z,100677.00
2018-06-05T17:41:44.783Z,100680.00
2018-06-05T17:44:14.604Z,100680.00
2018-06-05T17:46:43.806Z,100681.00
2018-06-05T17:49:13.009Z,100681.00
2018-06-05T17:51:43.273Z,100690.00
2018-06-05T17:54:12.425Z,100693.00
2018-06-05T17:56:41.619Z,100692.00
2018-06-05T17:59:10.767Z,100702.00
2018-06-05T18:01:40.060Z,100700.00
2018-06-05T18:04:09.235Z,100704.00
2018-06-05T18:06:38.438Z,100700.00
2018-06-05T18:09:08.587Z,100702.00
2018-06-05T18:11:40.738Z,100715.00
2018-06-05T18:14:09.902Z,100712.00
2018-06-05T18:16:39.078Z,100717.00
2018-06-05T18:19:08.268Z,100712.00
2018-06-05T18:21:37.451Z,100715.00
2018-06-05T18:24:06.608Z,100715.00
2018-06-05T18:26:35.792Z,100717.00
2018-06-05T18:29:05.005Z,100720.00
2018-06-05T18:31:34.245Z,100720.00
2018-06-05T18:34:03.368Z,100731.00
2018-06-05T18:36:32.589Z,100735.00
2018-06-05T18:39:01.810Z,100734.00
2018-06-05T18:41:30.982Z,100732.00
2018-06-05T18:44:00.215Z,100743.00
2018-06-05T18:46:29.411Z,100743.00
2018-06-05T18:48:58.540Z,100744.00
2018-06-05T18:51:27.739Z,100750.00
2018-06-05T18:53:56.916Z,100750.00
2018-06-05T18:56:26.098Z,100752.00
2018-06-05T18:58:55.273Z,100760.00
2018-06-05T19:01:24.585Z,100767.00
2018-06-05T19:03:53.852Z,100769.00
2018-06-05T19:06:23.099Z,100770.00
2018-06-05T19:08:52.357Z,100778.00
2018-06-05T19:11:21.755Z,100793.00
2018-06-05T19:13:50.944Z,100795.00
2018-06-05T19:16:20.071Z,100797.00
2018-06-05T19:18:49.289Z,100810.00
2018-06-05T19:21:18.482Z,100806.00
2018-06-05T19:23:47.718Z,100816.00
2018-06-05T19:26:16.883Z,100821.00
2018-06-05T19:28:46.066Z,100815.00
2018-06-05T19:31:15.276Z,100827.00
2018-06-05T19:33:44.482Z,100830.00
2018-06-05T19:36:13.678Z,100834.00
2018-06-05T19:38:43.297Z,100846.00
2018-06-05T19:41:12.514Z,100844.00
2018-06-05T19:43:41.746Z,100844.00
2018-06-05T19:46:10.985Z,100850.00
2018-06-05T19:48:40.334Z,100861.00
2018-06-05T19:51:09.576Z,100864.00
2018-06-05T19:53:38.779Z,100860.00
2018-06-05T19:56:08.236Z,100865.00
2018-06-05T19:58:37.437Z,100869.00
2018-06-05T20:01:06.699Z,100872.00
2018-06-05T20:03:35.866Z,100869.00
2018-06-05T20:06:05.069Z,100862.00
2018-06-05T20:08:34.319Z,100872.00
2018-06-05T20:11:03.596Z,100881.00
2018-06-05T20:13:33.314Z,100878.00
2018-06-05T20:16:02.575Z,100876.00
2018-06-05T20:18:32.150Z,100877.00
2018-06-05T20:21:01.431Z,100893.00
2018-06-05T20:23:30.670Z,100888.00
2018-06-05T20:25:59.977Z,100887.00
2018-06-05T20:28:29.204Z,100890.00
2018-06-05T20:30:58.479Z,100894.00
2018-06-05T20:33:27.688Z,100904.00
2018-06-05T20:35:56.964Z,100904.00
2018-06-05T20:38:26.251Z,100905.00
2018-06-05T20:40:55.565Z,100903.00
2018-06-05T20:43:26.936Z,100908.00
2018-06-05T20:45:56.487Z,100911.00
2018-06-05T20:48:25.780Z,100907.00
2018-06-05T20:50:54.968Z,100919.00
2018-06-05T20:53:25.173Z,100914.00
2018-06-05T20:55:54.587Z,100916.00
2018-06-05T20:58:24.595Z,100921.00
2018-06-05T21:00:53.769Z,100929.00
2018-06-05T21:03:22.988Z,100925.00
2018-06-05T21:05:52.429Z,100928.00
2018-06-05T21:08:21.869Z,100933.00
2018-06-05T21:10:51.059Z,100938.00
2018-06-05T21:13:20.489Z,100936.00
2018-06-05T21:15:49.845Z,100937.00
2018-06-05T21:18:19.074Z,100940.00
2018-06-05T21:20:48.405Z,100938.00
2018-06-05T21:23:17.557Z,100943.00
2018-06-05T21:25:46.892Z,100946.00
2018-06-05T21:28:16.105Z,100945.00
2018-06-05T21:30:45.282Z,100948.00
2018-06-05T21:33:14.502Z,100946.00
2018-06-05T21:35:43.678Z,100950.00
2018-06-05T21:38:12.915Z,100957.00
2018-06-05T21:40:42.115Z,100960.00
2018-06-05T21:43:11.274Z,100959.00
2018-06-05T21:45:40.473Z,100959.00
2018-06-05T21:48:09.670Z,100962.00
2018-06-05T21:50:38.876Z,100962.00
2018-06-05T21:53:08.164Z,100966.00
2018-06-05T21:55:37.409Z,100967.00
2018-06-05T21:58:06.544Z,100971.00
2018-06-05T22:00:35.755Z,100968.00
2018-06-05T22:03:04.961Z,100973.00
2018-06-05T22:05:34.232Z,100977.00
2018-06-05T22:08:03.425Z,100980.00
2018-06-05T22:10:32.564Z,100986.00
2018-06-05T22:13:01.776Z,100985.00
2018-06-05T22:15:30.941Z,100985.00
2018-06-05T22:18:00.106Z,100984.00
2018-06-05T22:20:29.340Z,100989.00
2018-06-05T22:22:58.555Z,100996.00
2018-06-05T22:25:27.709Z,100994.00
2018-06-05T22:27:56.902Z,100993.00
2018-06-05T22:30:26.045Z,100999.00
2018-06-05T22:32:55.252Z,100997.00
2018-06-05T22:35:24.535Z,100999.00
2018-06-05T22:37:53.741Z,101003.00
2018-06-05T22:40:22.960Z,101005.00
2018-06-05T22:42:52.169Z,101009.00
2018-06-05T22:45:21.413Z,101007.00
2018-06-05T22:47:50.557Z,101007.00
2018-06-05T22:50:19.733Z,101016.00
2018-06-05T22:52:49.543Z,101011.00
2018-06-05T22:55:18.742Z,101012.00
2018-06-05T22:57:47.889Z,101010.00
2018-06-05T23:00:32.078Z,101009.00
2018-06-05T23:03:01.344Z,101013.00
2018-06-05T23:05:30.484Z,101009.00
2018-06-05T23:07:59.732Z,101009.00
2018-06-05T23:10:28.975Z,101011.00
2018-06-05T23:12:58.170Z,101012.00
2018-06-05T23:15:27.400Z,101015.00
2018-06-05T23:17:56.617Z,101011.00
2018-06-05T23:20:26.170Z,101013.00
2018-06-05T23:22:55.341Z,101010.00
2018-06-05T23:25:25.708Z,101013.00
2018-06-05T23:27:54.908Z,101019.00
2018-06-05T23:30:24.060Z,101012.00
2018-06-05T23:32:53.281Z,101009.00
2018-06-05T23:35:22.500Z,101024.00
2018-06-05T23:37:51.937Z,101020.00
2018-06-05T23:40:21.165Z,101026.00
2018-06-05T23:42:50.371Z,101020.00
2018-06-05T23:45:19.537Z,101022.00
2018-06-05T23:47:48.738Z,101018.00
2018-06-05T23:50:17.929Z,101021.00
2018-06-05T23:52:47.192Z,101037.00
2018-06-05T23:55:16.358Z,101019.00
2018-06-05T23:57:45.550Z,101024.00
